createdAt,value
2019-02-18T00:02:15.077Z,-0.47
2019-02-18T00:04:43.494Z,-0.48
2019-02-18T00:07:14.430Z,-0.48
2019-02-18T00:09:41.994Z,-0.50
2019-02-18T00:12:10.392Z,-0.50
2019-02-18T00:14:38.780Z,-0.53
2019-02-18T00:17:07.180Z,-0.54
2019-02-18T00:19:35.636Z,-0.54
2019-02-18T00:22:04.517Z,-0.58
2019-02-18T00:24:32.910Z,-0.59
2019-02-18T00:27:01.311Z,-0.61
2019-02-18T00:29:29.776Z,-0.62
2019-02-18T00:31:58.171Z,-0.64
2019-02-18T00:34:26.584Z,-0.67
2019-02-18T00:36:54.973Z,-0.67
2019-02-18T00:39:23.368Z,-0.70
2019-02-18T00:41:51.763Z,-0.70
2019-02-18T00:44:20.159Z,-0.73
2019-02-18T00:46:48.553Z,-0.74
2019-02-18T00:49:16.950Z,-0.75
2019-02-18T00:51:45.353Z,-0.77
2019-02-18T00:54:13.760Z,-0.78
2019-02-18T00:56:42.156Z,-0.80
2019-02-18T00:59:10.546Z,-0.81
2019-02-18T01:01:38.945Z,-0.82
2019-02-18T01:04:07.336Z,-0.82
2019-02-18T01:06:35.738Z,-0.85
2019-02-18T01:09:05.312Z,-0.85
2019-02-18T01:11:33.839Z,-0.87
2019-02-18T01:14:02.231Z,-0.87
2019-02-18T01:16:30.632Z,-0.87
2019-02-18T01:18:59.021Z,-0.89
2019-02-18T01:21:27.414Z,-0.92
2019-02-18T01:23:55.812Z,-0.94
2019-02-18T01:26:24.210Z,-0.95
2019-02-18T01:28:52.647Z,-0.98
2019-02-18T01:31:21.042Z,-0.98
2019-02-18T01:33:49.434Z,-0.99
2019-02-18T01:36:17.836Z,-1.00
2019-02-18T01:38:46.229Z,-1.04
2019-02-18T01:41:14.616Z,-1.06
2019-02-18T01:43:43.010Z,-1.07
2019-02-18T01:46:11.400Z,-1.10
2019-02-18T01:48:39.798Z,-1.11
2019-02-18T01:51:08.201Z,-1.13
2019-02-18T01:53:36.597Z,-1.13
2019-02-18T01:56:05.130Z,-1.13
2019-02-18T01:58:33.525Z,-1.12
2019-02-18T02:01:01.922Z,-1.14
2019-02-18T02:03:30.333Z,-1.15
2019-02-18T02:05:58.764Z,-1.15
2019-02-18T02:08:27.163Z,-1.15
2019-02-18T02:10:55.565Z,-1.15
2019-02-18T02:13:31.515Z,-1.18
2019-02-18T02:16:02.943Z,-1.18
2019-02-18T02:18:31.378Z,-1.20
2019-02-18T02:20:59.811Z,-1.21
2019-02-18T02:23:28.484Z,-1.22
2019-02-18T02:25:56.909Z,-1.24
2019-02-18T02:28:25.425Z,-1.25
2019-02-18T02:30:53.901Z,-1.26
2019-02-18T02:33:22.459Z,-1.30
2019-02-18T02:35:50.915Z,-1.33
2019-02-18T02:38:19.317Z,-1.32
2019-02-18T02:40:47.710Z,-1.34
2019-02-18T02:43:16.104Z,-1.35
2019-02-18T02:45:44.517Z,-1.37
2019-02-18T02:48:12.990Z,-1.37
2019-02-18T02:50:41.380Z,-1.40
2019-02-18T02:53:09.773Z,-1.42
2019-02-18T02:55:38.167Z,-1.42
2019-02-18T02:58:06.565Z,-1.42
2019-02-18T03:00:34.990Z,-1.42
2019-02-18T03:03:03.388Z,-1.44
2019-02-18T03:05:31.807Z,-1.49
2019-02-18T03:08:00.214Z,-1.52
2019-02-18T03:10:28.602Z,-1.52
2019-02-18T03:12:56.993Z,-1.52
2019-02-18T03:15:25.385Z,-1.82
2019-02-18T03:17:53.802Z,-1.53
2019-02-18T03:20:22.205Z,-1.55
2019-02-18T03:22:50.596Z,-1.57
2019-02-18T03:25:24.953Z,-1.58
2019-02-18T03:27:58.999Z,-1.59
2019-02-18T03:30:47.846Z,-1.62
2019-02-18T03:33:19.280Z,-1.61
2019-02-18T03:35:47.670Z,-1.62
2019-02-18T03:38:16.069Z,-1.64
2019-02-18T03:40:44.455Z,-1.66
2019-02-18T03:43:12.915Z,-1.67
2019-02-18T03:45:41.305Z,-1.66
2019-02-18T03:48:09.712Z,-1.68
2019-02-18T03:50:38.113Z,-1.69
2019-02-18T03:53:06.518Z,-1.71
2019-02-18T03:55:34.917Z,-1.71
2019-02-18T03:58:03.328Z,-1.73
2019-02-18T04:00:31.856Z,-1.75
2019-02-18T04:03:00.455Z,-1.78
2019-02-18T04:05:28.923Z,-1.79
2019-02-18T04:07:57.326Z,-1.80
2019-02-18T04:10:25.877Z,-1.82
2019-02-18T04:12:54.313Z,-1.84
2019-02-18T04:15:22.812Z,-1.85
2019-02-18T04:17:51.193Z,-1.86
2019-02-18T04:20:19.585Z,-1.88
2019-02-18T04:22:47.971Z,-1.91
2019-02-18T04:25:16.365Z,-1.92
2019-02-18T04:27:44.758Z,-1.91
2019-02-18T04:30:13.799Z,-1.94
2019-02-18T04:32:42.323Z,-1.95
2019-02-18T04:35:10.720Z,-1.96
2019-02-18T04:37:39.114Z,-1.99
2019-02-18T04:40:09.219Z,-2.00
2019-02-18T04:42:37.610Z,-2.02
2019-02-18T04:45:08.821Z,-2.03
2019-02-18T04:47:37.198Z,-2.04
2019-02-18T04:50:07.230Z,-2.04
2019-02-18T04:52:35.679Z,-2.05
2019-02-18T04:55:06.001Z,-2.06
2019-02-18T04:57:34.416Z,-2.06
2019-02-18T05:00:02.861Z,-2.06
2019-02-18T05:02:31.305Z,-2.06
2019-02-18T05:04:59.662Z,-2.08
2019-02-18T05:07:28.074Z,-2.09
2019-02-18T05:09:56.481Z,-2.10
2019-02-18T05:12:24.871Z,-2.10
2019-02-18T05:14:53.266Z,-2.09
2019-02-18T05:17:21.658Z,-2.10
2019-02-18T05:19:50.053Z,-2.12
2019-02-18T05:22:18.449Z,-2.11
2019-02-18T05:24:46.850Z,-2.11
2019-02-18T05:27:15.273Z,-2.46
2019-02-18T05:29:43.674Z,-2.12
2019-02-18T05:32:12.064Z,-2.13
2019-02-18T05:34:40.461Z,-2.14
2019-02-18T05:37:08.859Z,-2.15
2019-02-18T05:39:37.262Z,-2.16
2019-02-18T05:42:05.650Z,-2.17
2019-02-18T05:44:34.135Z,-2.17
2019-02-18T05:47:03.466Z,-2.19
2019-02-18T05:49:31.886Z,-2.20
2019-02-18T05:52:00.365Z,-2.20
2019-02-18T05:54:28.791Z,-2.23
2019-02-18T05:56:57.260Z,-2.24
2019-02-18T05:59:25.693Z,-2.23
2019-02-18T06:01:54.049Z,-2.46
2019-02-18T06:04:22.442Z,-2.27
2019-02-18T06:06:50.843Z,-2.28
2019-02-18T06:09:29.022Z,-2.26
2019-02-18T06:11:49.355Z,-2.24
2019-02-18T06:14:17.853Z,-2.26
2019-02-18T06:16:46.941Z,-2.32
2019-02-18T06:19:15.333Z,-2.30
2019-02-18T06:21:43.732Z,-2.31
2019-02-18T06:24:12.124Z,-2.29
2019-02-18T06:26:40.521Z,-2.27
2019-02-18T06:29:08.918Z,-2.27
2019-02-18T06:31:37.312Z,-2.27
2019-02-18T06:34:05.779Z,-2.29
2019-02-18T06:36:34.166Z,-2.28
2019-02-18T06:39:02.760Z,-2.25
2019-02-18T06:41:32.712Z,-2.26
2019-02-18T06:44:01.102Z,-2.27
2019-02-18T06:46:33.825Z,-2.27
2019-02-18T06:49:06.679Z,-2.27
2019-02-18T06:51:35.069Z,-2.27
2019-02-18T06:54:03.462Z,-2.27
2019-02-18T06:56:45.579Z,-2.28
2019-02-18T06:59:18.402Z,-2.26
2019-02-18T07:01:54.609Z,-2.23
2019-02-18T07:04:27.670Z,-2.20
2019-02-18T07:07:03.606Z,-2.16
2019-02-18T07:09:33.650Z,-2.14
2019-02-18T07:12:18.897Z,-2.11
2019-02-18T07:14:47.391Z,-2.06
2019-02-18T07:17:15.804Z,-1.99
2019-02-18T07:19:44.193Z,-1.98
2019-02-18T07:22:12.584Z,-1.95
2019-02-18T07:24:40.979Z,-1.90
2019-02-18T07:27:09.381Z,-1.89
2019-02-18T07:29:37.787Z,-1.82
2019-02-18T07:32:06.186Z,-1.78
2019-02-18T07:34:34.581Z,-1.73
2019-02-18T07:37:03.086Z,-1.68
2019-02-18T07:39:31.482Z,-1.64
2019-02-18T07:41:59.883Z,-1.59
2019-02-18T07:44:28.284Z,-1.55
2019-02-18T07:46:56.674Z,-1.51
2019-02-18T07:49:25.068Z,-1.47
2019-02-18T07:51:53.512Z,-1.44
2019-02-18T07:54:21.925Z,-1.40
2019-02-18T07:56:50.317Z,-1.35
2019-02-18T07:59:18.715Z,-1.30
2019-02-18T08:01:47.102Z,-1.26
2019-02-18T08:04:15.497Z,-1.20
2019-02-18T08:06:43.895Z,-1.15
2019-02-18T08:09:12.298Z,-1.08
2019-02-18T08:11:40.682Z,-1.03
2019-02-18T08:14:09.089Z,-0.98
2019-02-18T08:16:37.469Z,-0.92
2019-02-18T08:19:05.874Z,-0.88
2019-02-18T08:21:34.267Z,-0.83
2019-02-18T08:24:02.734Z,-0.77
2019-02-18T08:26:31.135Z,-0.69
2019-02-18T08:28:59.622Z,-0.63
2019-02-18T08:31:28.149Z,-0.58
2019-02-18T08:33:56.587Z,-0.51
2019-02-18T08:36:25.149Z,-0.43
2019-02-18T08:38:53.533Z,-0.34
2019-02-18T08:41:21.992Z,-0.29
2019-02-18T08:43:50.396Z,-0.25
2019-02-18T08:46:18.788Z,-0.19
2019-02-18T08:48:47.226Z,-0.12
2019-02-18T08:51:15.759Z,-0.07
2019-02-18T08:53:44.114Z,-0.03
2019-02-18T08:56:12.508Z,0.05
2019-02-18T08:58:40.900Z,0.10
2019-02-18T09:01:09.358Z,0.16
2019-02-18T09:03:37.766Z,0.22
2019-02-18T09:06:06.216Z,0.28
2019-02-18T09:08:34.631Z,0.35
2019-02-18T09:11:03.022Z,0.45
2019-02-18T09:13:31.479Z,0.57
2019-02-18T09:16:00.599Z,0.70
2019-02-18T09:18:29.035Z,0.82
2019-02-18T09:20:57.425Z,0.87
2019-02-18T09:23:30.150Z,0.89
2019-02-18T09:25:58.622Z,0.90
2019-02-18T09:28:27.012Z,0.94
2019-02-18T09:30:55.406Z,1.01
2019-02-18T09:33:24.790Z,1.01
2019-02-18T09:35:55.618Z,1.21
2019-02-18T09:38:25.506Z,1.32
2019-02-18T09:40:53.999Z,1.45
2019-02-18T09:43:22.451Z,1.50
2019-02-18T09:45:50.855Z,1.52
2019-02-18T09:48:19.248Z,1.59
2019-02-18T09:50:47.644Z,1.73
2019-02-18T09:53:16.071Z,1.83
2019-02-18T09:55:44.468Z,1.92
2019-02-18T09:58:12.857Z,2.06
2019-02-18T10:00:41.254Z,2.12
2019-02-18T10:03:09.645Z,2.12
2019-02-18T10:05:38.042Z,2.11
2019-02-18T10:08:06.442Z,2.11
2019-02-18T10:10:34.833Z,2.21
2019-02-18T10:13:03.229Z,2.26
2019-02-18T10:15:31.627Z,2.28
2019-02-18T10:18:00.094Z,2.30
2019-02-18T10:20:28.552Z,2.29
2019-02-18T10:22:56.962Z,2.43
2019-02-18T10:25:25.385Z,2.53
2019-02-18T10:27:53.792Z,2.76
2019-02-18T10:30:22.175Z,2.83
2019-02-18T10:32:50.564Z,2.90
2019-02-18T10:35:18.977Z,2.97
2019-02-18T10:37:54.823Z,3.05
2019-02-18T10:40:17.473Z,3.08
2019-02-18T10:42:45.861Z,3.16
2019-02-18T10:45:14.276Z,3.33
2019-02-18T10:47:42.709Z,3.50
2019-02-18T10:50:12.107Z,3.49
2019-02-18T10:52:40.502Z,3.56
2019-02-18T10:55:12.379Z,3.55
2019-02-18T10:57:40.943Z,3.60
2019-02-18T11:00:12.236Z,3.58
2019-02-18T11:02:40.626Z,3.69
2019-02-18T11:05:09.281Z,3.65
2019-02-18T11:07:37.678Z,3.64
2019-02-18T11:10:09.193Z,3.68
2019-02-18T11:12:37.589Z,3.81
2019-02-18T11:15:07.936Z,3.92
2019-02-18T11:17:38.984Z,4.11
2019-02-18T11:20:08.792Z,4.25
2019-02-18T11:22:37.193Z,4.32
2019-02-18T11:25:10.839Z,4.32
2019-02-18T11:27:39.325Z,4.28
2019-02-18T11:30:18.170Z,4.27
2019-02-18T11:32:46.655Z,4.40
2019-02-18T11:35:15.182Z,4.49
2019-02-18T11:37:43.582Z,4.66
2019-02-18T11:40:16.482Z,4.67
2019-02-18T11:42:44.949Z,4.74
2019-02-18T11:45:14.690Z,4.79
2019-02-18T11:47:43.073Z,4.82
2019-02-18T11:50:13.602Z,4.79
2019-02-18T11:52:41.989Z,4.97
2019-02-18T11:55:12.218Z,4.97
2019-02-18T11:57:41.057Z,4.97
2019-02-18T12:00:16.745Z,5.01
2019-02-18T12:02:45.133Z,5.20
2019-02-18T12:05:13.892Z,5.41
2019-02-18T12:07:42.291Z,5.50
2019-02-18T12:10:12.806Z,5.45
2019-02-18T12:12:41.483Z,5.49
2019-02-18T12:15:14.631Z,5.61
2019-02-18T12:17:43.029Z,5.71
2019-02-18T12:20:15.083Z,5.81
2019-02-18T12:22:43.542Z,6.11
2019-02-18T12:25:13.068Z,6.06
2019-02-18T12:27:41.816Z,6.10
2019-02-18T12:30:16.110Z,6.10
2019-02-18T12:32:44.564Z,6.07
2019-02-18T12:35:13.593Z,6.04
2019-02-18T12:37:42.112Z,6.11
2019-02-18T12:40:12.008Z,6.19
2019-02-18T12:42:42.394Z,6.30
2019-02-18T12:45:12.086Z,6.31
2019-02-18T12:47:40.552Z,6.33
2019-02-18T12:50:11.213Z,6.35
2019-02-18T12:52:39.561Z,6.30
2019-02-18T12:55:10.216Z,6.49
2019-02-18T12:57:38.977Z,6.55
2019-02-18T13:00:15.023Z,6.52
2019-02-18T13:02:45.016Z,6.63
2019-02-18T13:05:14.108Z,6.60
2019-02-18T13:07:42.607Z,6.61
2019-02-18T13:10:11.612Z,6.66
2019-02-18T13:12:40.380Z,6.60
2019-02-18T13:15:11.587Z,6.61
2019-02-18T13:17:39.979Z,6.66
2019-02-18T13:20:08.913Z,6.74
2019-02-18T13:22:37.302Z,6.75
2019-02-18T13:25:07.137Z,6.73
2019-02-18T13:27:35.532Z,6.85
2019-02-18T13:30:07.351Z,6.86
2019-02-18T13:32:35.828Z,6.96
2019-02-18T13:35:05.588Z,7.28
2019-02-18T13:37:33.993Z,7.37
2019-02-18T13:40:02.408Z,7.35
2019-02-18T13:42:30.867Z,7.40
2019-02-18T13:44:59.537Z,7.39
2019-02-18T13:47:28.014Z,7.38
2019-02-18T13:49:56.473Z,7.33
2019-02-18T13:52:24.892Z,7.28
2019-02-18T13:54:53.280Z,7.23
2019-02-18T13:57:21.683Z,7.20
2019-02-18T13:59:50.082Z,7.22
2019-02-18T14:02:18.650Z,7.21
2019-02-18T14:04:47.058Z,7.20
2019-02-18T14:07:15.442Z,7.20
2019-02-18T14:09:43.904Z,7.22
2019-02-18T14:12:16.219Z,7.23
2019-02-18T14:14:42.567Z,7.12
2019-02-18T14:17:11.352Z,7.29
2019-02-18T14:19:39.734Z,7.35
2019-02-18T14:22:08.473Z,7.37
2019-02-18T14:24:36.868Z,7.40
2019-02-18T14:27:05.325Z,7.36
2019-02-18T14:29:33.730Z,7.33
2019-02-18T14:32:02.161Z,7.34
2019-02-18T14:34:30.536Z,7.41
2019-02-18T14:36:58.929Z,7.44
2019-02-18T14:39:27.331Z,7.48
2019-02-18T14:41:55.721Z,7.47
2019-02-18T14:44:24.149Z,7.48
2019-02-18T14:46:52.614Z,7.53
2019-02-18T14:49:21.269Z,7.54
2019-02-18T14:51:49.702Z,7.52
2019-02-18T14:54:18.257Z,7.50
2019-02-18T14:56:46.636Z,7.48
2019-02-18T14:59:15.022Z,7.44
2019-02-18T15:01:43.580Z,7.42
2019-02-18T15:04:11.971Z,7.40
2019-02-18T15:06:40.359Z,7.38
2019-02-18T15:09:08.807Z,7.36
2019-02-18T15:11:37.466Z,7.34
2019-02-18T15:14:05.918Z,7.43
2019-02-18T15:16:34.313Z,7.46
2019-02-18T15:19:02.769Z,7.46
2019-02-18T15:21:31.354Z,7.57
2019-02-18T15:23:59.748Z,7.57
2019-02-18T15:26:28.137Z,7.53
2019-02-18T15:28:56.545Z,7.53
2019-02-18T15:31:25.833Z,7.57
2019-02-18T15:33:54.296Z,7.56
2019-02-18T15:36:23.139Z,7.52
2019-02-18T15:38:51.525Z,7.47
2019-02-18T15:41:19.923Z,7.60
2019-02-18T15:43:48.311Z,7.58
2019-02-18T15:46:17.722Z,7.58
2019-02-18T15:48:46.125Z,7.60
2019-02-18T15:51:14.584Z,7.62
2019-02-18T15:53:42.989Z,7.56
2019-02-18T15:56:11.377Z,7.52
2019-02-18T15:58:39.772Z,7.47
2019-02-18T16:01:08.169Z,7.39
2019-02-18T16:03:36.567Z,7.36
2019-02-18T16:06:04.962Z,7.32
2019-02-18T16:08:33.653Z,7.27
2019-02-18T16:11:02.048Z,7.22
2019-02-18T16:13:30.506Z,7.11
2019-02-18T16:15:58.895Z,7.05
2019-02-18T16:18:27.292Z,7.01
2019-02-18T16:20:55.686Z,6.93
2019-02-18T16:23:24.080Z,6.84
2019-02-18T16:25:52.470Z,6.73
2019-02-18T16:28:20.855Z,6.61
2019-02-18T16:30:49.244Z,6.52
2019-02-18T16:33:17.638Z,6.44
2019-02-18T16:35:46.039Z,6.36
2019-02-18T16:38:14.453Z,6.26
2019-02-18T16:40:42.855Z,6.14
2019-02-18T16:43:11.248Z,6.06
2019-02-18T16:45:39.652Z,5.94
2019-02-18T16:48:08.421Z,5.86
2019-02-18T16:50:36.864Z,5.77
2019-02-18T16:53:05.346Z,5.67
2019-02-18T16:55:34.236Z,5.59
2019-02-18T16:58:02.628Z,5.51
2019-02-18T17:00:32.667Z,5.44
2019-02-18T17:03:01.136Z,5.33
2019-02-18T17:05:29.545Z,5.21
2019-02-18T17:07:58.004Z,5.10
2019-02-18T17:10:26.672Z,5.00
2019-02-18T17:12:55.074Z,4.88
2019-02-18T17:15:23.484Z,4.78
2019-02-18T17:17:51.872Z,4.71
2019-02-18T17:20:20.283Z,4.65
2019-02-18T17:22:48.671Z,4.59
2019-02-18T17:25:17.138Z,4.55
2019-02-18T17:27:45.824Z,4.52
2019-02-18T17:30:15.657Z,4.50
2019-02-18T17:32:44.050Z,4.48
2019-02-18T17:35:15.774Z,4.45
2019-02-18T17:37:44.171Z,4.44
2019-02-18T17:40:13.816Z,4.41
2019-02-18T17:42:42.585Z,4.39
2019-02-18T17:45:13.463Z,4.34
2019-02-18T17:47:41.877Z,4.29
2019-02-18T17:50:12.624Z,4.21
2019-02-18T17:52:41.023Z,4.12
2019-02-18T17:55:11.991Z,4.03
2019-02-18T17:57:40.661Z,3.97
2019-02-18T18:00:14.874Z,3.95
2019-02-18T18:02:43.264Z,3.88
2019-02-18T18:05:11.796Z,3.85
2019-02-18T18:07:40.243Z,3.83
2019-02-18T18:10:13.473Z,3.77
2019-02-18T18:12:42.103Z,3.70
2019-02-18T18:15:12.200Z,3.61
2019-02-18T18:17:40.600Z,3.63
2019-02-18T18:20:13.058Z,3.61
2019-02-18T18:22:41.518Z,3.55
2019-02-18T18:25:11.924Z,3.48
2019-02-18T18:27:40.393Z,3.40
2019-02-18T18:30:17.303Z,3.34
2019-02-18T18:32:45.693Z,3.28
2019-02-18T18:35:14.354Z,3.21
2019-02-18T18:37:42.734Z,3.15
2019-02-18T18:40:15.791Z,3.08
2019-02-18T18:42:44.203Z,3.02
2019-02-18T18:45:15.702Z,2.99
2019-02-18T18:47:44.238Z,2.93
2019-02-18T18:50:23.192Z,2.89
2019-02-18T18:52:51.586Z,2.86
2019-02-18T18:55:19.980Z,2.84
2019-02-18T18:57:48.443Z,2.85
2019-02-18T19:00:23.696Z,2.89
2019-02-18T19:02:52.162Z,2.92
2019-02-18T19:05:20.815Z,2.91
2019-02-18T19:07:49.208Z,2.88
2019-02-18T19:10:17.662Z,2.82
2019-02-18T19:12:46.056Z,2.75
2019-02-18T19:15:15.606Z,2.63
2019-02-18T19:17:44.010Z,2.56
2019-02-18T19:20:13.155Z,2.52
2019-02-18T19:22:42.549Z,2.45
2019-02-18T19:25:12.477Z,2.38
2019-02-18T19:27:40.871Z,2.33
2019-02-18T19:30:14.787Z,2.30
2019-02-18T19:32:44.094Z,2.23
2019-02-18T19:35:12.491Z,2.18
2019-02-18T19:37:40.894Z,2.13
2019-02-18T19:40:11.749Z,2.11
2019-02-18T19:42:41.081Z,2.12
2019-02-18T19:45:12.710Z,2.12
2019-02-18T19:47:41.411Z,2.10
2019-02-18T19:50:09.918Z,2.09
2019-02-18T19:52:38.331Z,2.08
2019-02-18T19:55:09.218Z,2.03
2019-02-18T19:57:37.669Z,1.98
2019-02-18T20:00:17.487Z,1.95
2019-02-18T20:02:45.942Z,1.91
2019-02-18T20:05:14.567Z,1.89
2019-02-18T20:07:44.279Z,1.87
2019-02-18T20:10:13.394Z,1.84
2019-02-18T20:12:41.801Z,1.82
2019-02-18T20:15:13.132Z,1.78
2019-02-18T20:17:41.524Z,1.75
2019-02-18T20:20:12.515Z,1.70
2019-02-18T20:22:40.912Z,1.66
2019-02-18T20:25:09.845Z,1.58
2019-02-18T20:27:38.303Z,1.52
2019-02-18T20:30:12.340Z,1.48
2019-02-18T20:32:40.746Z,1.43
2019-02-18T20:35:10.576Z,1.22
2019-02-18T20:37:39.944Z,1.35
2019-02-18T20:40:09.708Z,1.32
2019-02-18T20:42:38.586Z,1.31
2019-02-18T20:45:11.662Z,1.26
2019-02-18T20:47:42.058Z,1.22
2019-02-18T20:50:12.022Z,1.19
2019-02-18T20:52:40.548Z,1.15
2019-02-18T20:55:11.296Z,1.11
2019-02-18T20:57:39.684Z,1.09
2019-02-18T21:00:12.535Z,1.06
2019-02-18T21:02:40.999Z,1.02
2019-02-18T21:05:09.476Z,1.00
2019-02-18T21:07:37.868Z,0.95
2019-02-18T21:10:11.757Z,0.88
2019-02-18T21:12:40.207Z,0.88
2019-02-18T21:15:09.250Z,0.86
2019-02-18T21:17:37.643Z,0.85
2019-02-18T21:20:08.499Z,0.85
2019-02-18T21:22:37.749Z,0.87
2019-02-18T21:25:08.375Z,0.90
2019-02-18T21:27:36.783Z,0.88
2019-02-18T21:30:08.245Z,0.85
2019-02-18T21:32:36.685Z,0.82
2019-02-18T21:35:06.467Z,0.80
2019-02-18T21:37:34.866Z,0.78
2019-02-18T21:40:04.267Z,0.76
2019-02-18T21:42:33.623Z,0.73
2019-02-18T21:45:02.038Z,0.69
2019-02-18T21:47:30.442Z,0.63
2019-02-18T21:49:58.841Z,0.56
2019-02-18T21:52:27.243Z,0.49
2019-02-18T21:54:56.013Z,0.45
2019-02-18T21:57:24.429Z,0.42
2019-02-18T21:59:52.830Z,0.41
2019-02-18T22:02:21.233Z,0.39
2019-02-18T22:04:49.690Z,0.37
2019-02-18T22:07:18.083Z,0.35
2019-02-18T22:09:46.478Z,0.36
2019-02-18T22:12:14.876Z,0.33
2019-02-18T22:14:43.258Z,0.32
2019-02-18T22:17:11.657Z,0.29
2019-02-18T22:19:40.055Z,0.27
2019-02-18T22:22:08.458Z,0.26
2019-02-18T22:24:36.853Z,0.22
2019-02-18T22:27:05.353Z,0.18
2019-02-18T22:29:33.739Z,0.20
2019-02-18T22:32:02.128Z,0.16
2019-02-18T22:34:30.541Z,0.14
2019-02-18T22:36:58.909Z,0.12
2019-02-18T22:39:27.298Z,0.11
2019-02-18T22:41:55.687Z,0.08
2019-02-18T22:44:24.077Z,0.04
2019-02-18T22:46:52.468Z,0.02
2019-02-18T22:49:20.866Z,0.01
2019-02-18T22:51:49.262Z,-0.01
2019-02-18T22:54:17.644Z,-0.06
2019-02-18T22:56:46.105Z,-0.09
2019-02-18T22:59:14.505Z,-0.13
2019-02-18T23:01:42.900Z,-0.17
2019-02-18T23:04:11.298Z,-0.19
2019-02-18T23:06:39.709Z,-0.20
2019-02-18T23:09:09.796Z,-0.21
2019-02-18T23:11:38.196Z,-0.22
2019-02-18T23:14:07.262Z,-0.24
2019-02-18T23:16:35.654Z,-0.24
2019-02-18T23:19:04.426Z,-0.25
2019-02-18T23:21:32.829Z,-0.28
2019-02-18T23:24:01.227Z,-0.32
2019-02-18T23:26:29.636Z,-0.32
2019-02-18T23:28:58.029Z,-0.32
2019-02-18T23:31:26.428Z,-0.37
2019-02-18T23:33:54.824Z,-0.35
2019-02-18T23:36:23.408Z,-0.37
2019-02-18T23:38:51.811Z,-0.38
2019-02-18T23:41:20.206Z,-0.39
2019-02-18T23:43:48.601Z,-0.44
2019-02-18T23:46:16.995Z,-0.42
2019-02-18T23:48:45.393Z,-0.43
2019-02-18T23:51:13.834Z,-0.45
2019-02-18T23:53:42.179Z,-0.46
2019-02-18T23:56:10.568Z,-0.48
2019-02-18T23:58:38.973Z,-0.49
